Time;durP1;ratioP1;P1;durP2;ratioP2;P2;SDS_P1;SDS_P2;PMS_P1;PMS_P2;Temp;Humidity;BMP_temperature;BMP_pressure;BME280_temperature;BME280_humidity;BME280_pressure;Samples;Min_cycle;Max_cycle;Signal;HPM_P1;HPM_P2
2021/04/04 00:02:19;;;;;;;1.65;1.55;;;;;;;13.26;58.40;99668.25;4996150;28;20031;-77
2021/04/04 00:04:44;;;;;;;3.75;1.80;;;;;;;13.21;59.09;99679.81;4978557;28;20030;-77
2021/04/04 00:07:10;;;;;;;3.65;1.50;;;;;;;13.14;59.03;99676.94;4978475;28;20034;-77
2021/04/04 00:09:36;;;;;;;2.97;1.08;;;;;;;13.22;58.66;99661.03;4978678;28;20076;-77
2021/04/04 00:12:01;;;;;;;1.67;1.20;;;;;;;13.02;59.15;99666.91;4978331;28;20466;-77
2021/04/04 00:14:30;;;;;;;3.65;2.03;;;;;;;13.09;58.59;99663.34;4978122;28;20065;-77
2021/04/04 00:16:55;;;;;;;11.02;8.27;;;;;;;13.15;59.11;99672.13;4978279;28;20469;-77
2021/04/04 00:19:21;;;;;;;28.70;22.00;;;;;;;13.25;57.72;99677.78;4978069;28;20041;-77
2021/04/04 00:21:49;;;;;;;20.70;15.75;;;;;;;13.25;58.05;99680.59;4994469;28;20030;-77
2021/04/04 00:24:15;;;;;;;6.30;5.65;;;;;;;13.11;57.88;99660.97;4978325;28;20030;-77
2021/04/04 00:26:40;;;;;;;5.15;3.90;;;;;;;13.07;58.03;99666.53;4978048;28;20445;-77
2021/04/04 00:29:09;;;;;;;5.30;3.78;;;;;;;13.03;57.56;99671.28;4978021;28;20026;-77
2021/04/04 00:31:35;;;;;;;3.20;2.90;;;;;;;12.95;57.92;99664.09;4977906;28;20038;-77
2021/04/04 00:34:02;;;;;;;7.22;5.35;;;;;;;12.79;57.98;99649.66;4977989;28;20477;-77
2021/04/04 00:36:27;;;;;;;7.75;6.95;;;;;;;12.82;58.12;99644.06;4977507;28;20092;-77
2021/04/04 00:38:53;;;;;;;5.15;4.57;;;;;;;12.89;57.54;99654.50;4978250;28;20038;-77
2021/04/04 00:41:19;;;;;;;3.30;2.70;;;;;;;12.66;58.41;99645.56;4977867;28;20035;-77
2021/04/04 00:43:44;;;;;;;3.67;2.28;;;;;;;12.68;58.07;99660.75;4977881;28;20469;-77
2021/04/04 00:46:10;;;;;;;2.38;2.17;;;;;;;12.65;58.08;99661.53;4994705;28;20035;-77
2021/04/04 00:48:35;;;;;;;1.73;1.63;;;;;;;12.68;57.65;99654.38;4977274;28;20034;-77
2021/04/04 00:51:01;;;;;;;2.20;1.58;;;;;;;12.60;58.21;99642.34;4978223;28;20038;-77
2021/04/04 00:53:26;;;;;;;1.88;1.52;;;;;;;12.71;57.74;99653.56;4977657;28;20417;-77
2021/04/04 00:55:52;;;;;;;1.42;1.17;;;;;;;12.76;57.81;99658.78;4977617;28;20121;-76
2021/04/04 00:58:18;;;;;;;3.25;1.00;;;;;;;12.57;57.73;99652.31;4977012;28;20030;-76
2021/04/04 01:00:43;;;;;;;1.10;1.00;;;;;;;12.51;57.90;99662.22;4977416;28;20099;-76
2021/04/04 01:03:09;;;;;;;1.17;0.90;;;;;;;12.57;58.04;99657.09;4977342;28;20033;-77
2021/04/04 01:05:39;;;;;;;1.02;1.00;;;;;;;12.57;57.96;99655.09;4977544;28;20034;-77
2021/04/04 01:08:06;;;;;;;8.18;6.50;;;;;;;12.42;57.71;99642.25;4977172;28;20031;-76
2021/04/04 01:10:35;;;;;;;6.88;2.97;;;;;;;12.44;58.48;99655.81;4994721;28;20033;-77
2021/04/04 01:13:19;;;;;;;4.05;1.70;;;;;;;12.41;58.33;99662.97;4994526;28;20030;-77
2021/04/04 01:16:03;;;;;;;;;;;;;;;12.34;58.11;99662.91;4977616;28;20124;-77
2021/04/04 01:18:43;;;;;;;5.70;3.00;;;;;;;12.17;58.31;99656.00;4977364;28;19936;-77
2021/04/04 01:21:25;;;;;;;2.33;2.00;;;;;;;12.26;58.29;99662.06;4977877;28;20425;-77
2021/04/04 01:24:02;;;;;;;3.03;2.40;;;;;;;12.29;58.65;99661.28;4977690;28;20034;-77
2021/04/04 01:27:02;;;;;;;1.55;1.45;;;;;;;12.12;58.78;99649.97;4977412;28;20093;-76
2021/04/04 01:29:31;;;;;;;2.22;1.83;;;;;;;12.19;58.56;99670.34;4977011;28;20469;-76
2021/04/04 01:31:57;;;;;;;1.63;1.52;;;;;;;12.12;58.43;99653.56;4977043;28;20022;-77
2021/04/04 01:34:26;;;;;;;1.67;1.40;;;;;;;12.17;58.50;99674.72;4994237;28;20030;-77
2021/04/04 01:36:56;;;;;;;2.63;1.60;;;;;;;12.00;58.79;99646.31;4973739;28;20057;-77
2021/04/04 01:39:25;;;;;;;7.53;4.28;;;;;;;12.12;59.30;99663.94;4974712;28;20478;-76
2021/04/04 01:41:53;;;;;;;5.45;3.33;;;;;;;12.13;58.83;99668.31;4973854;28;20462;-76
2021/04/04 01:44:21;;;;;;;2.25;1.70;;;;;;;11.95;58.67;99655.03;4974923;28;20103;-77
2021/04/04 01:46:49;;;;;;;0.90;0.90;;;;;;;12.13;58.65;99685.03;4974061;28;20031;-76
2021/04/04 01:49:16;;;;;;;3.17;0.82;;;;;;;12.12;57.56;99678.66;4974004;28;20043;-76
2021/04/04 01:51:43;;;;;;;2.25;1.83;;;;;;;12.13;57.97;99679.47;4977281;28;20050;-77
2021/04/04 01:54:10;;;;;;;1.73;1.00;;;;;;;12.14;58.01;99686.63;4982129;28;20027;-77
2021/04/04 01:56:36;;;;;;;0.90;0.80;;;;;;;12.25;57.99;99685.56;4980566;28;20035;-77
2021/04/04 01:59:03;;;;;;;2.42;0.82;;;;;;;12.06;57.87;99675.44;4979904;28;20094;-77
2021/04/04 02:01:30;;;;;;;1.58;1.00;;;;;;;12.14;57.66;99678.28;4981100;28;20046;-77
2021/04/04 02:04:02;;;;;;;0.60;0.60;;;;;;;12.19;57.17;99669.56;4981451;28;20037;-77
2021/04/04 02:06:27;;;;;;;2.20;0.73;;;;;;;12.14;57.58;99667.13;4980113;28;20097;-77
2021/04/04 02:08:54;;;;;;;0.85;0.80;;;;;;;12.06;57.32;99667.06;4979915;28;20018;-78
2021/04/04 02:11:24;;;;;;;1.02;0.73;;;;;;;12.09;56.85;99678.63;4979904;28;20031;-76
2021/04/04 02:13:51;;;;;;;1.13;0.80;;;;;;;12.04;57.51;99671.44;4980146;28;20082;-76
2021/04/04 02:16:19;;;;;;;1.85;0.70;;;;;;;12.10;57.04;99663.53;4979795;28;20039;-77
2021/04/04 02:18:45;;;;;;;2.97;1.10;;;;;;;12.02;57.00;99663.44;4980041;28;20548;-76
2021/04/04 02:21:12;;;;;;;1.05;0.80;;;;;;;12.00;57.09;99656.66;4980657;28;20378;-77
2021/04/04 02:23:39;;;;;;;1.08;1.00;;;;;;;12.00;56.61;99657.47;4979543;28;20031;-77
2021/04/04 02:26:04;;;;;;;1.00;0.90;;;;;;;12.01;57.42;99656.28;4980644;28;20425;-77
2021/04/04 02:28:30;;;;;;;0.80;0.80;;;;;;;11.97;56.43;99655.44;4980100;28;20041;-77
2021/04/04 02:30:56;;;;;;;1.73;1.08;;;;;;;11.91;56.85;99656.97;4979457;28;20581;-76
2021/04/04 02:33:23;;;;;;;1.73;1.00;;;;;;;11.98;56.59;99657.03;4979968;28;20093;-76
2021/04/04 02:35:54;;;;;;;1.60;1.00;;;;;;;11.97;55.90;99649.06;4979661;28;20034;-77
2021/04/04 02:38:33;;;;;;;14.15;9.40;;;;;;;11.96;56.15;99658.63;4979001;28;20058;-76
2021/04/04 02:41:01;;;;;;;10.43;8.02;;;;;;;11.91;55.94;99651.41;4979630;28;20030;-77
2021/04/04 02:43:29;;;;;;;4.38;2.28;;;;;;;12.01;55.20;99644.31;4979637;28;20037;-76
2021/04/04 02:45:57;;;;;;;3.28;1.60;;;;;;;11.95;54.99;99652.25;4981250;28;20105;-76
2021/04/04 02:49:04;;;;;;;6.63;5.38;;;;;;;11.89;55.22;99648.22;4979221;28;20073;-76
2021/04/04 02:51:35;;;;;;;2.63;1.50;;;;;;;11.90;55.62;99655.38;4960102;28;20521;-77
2021/04/04 02:54:02;;;;;;;1.80;1.02;;;;;;;11.90;54.77;99649.81;4979862;28;20474;-76
2021/04/04 02:56:34;;;;;;;6.53;1.35;;;;;;;11.87;55.00;99642.19;4980673;28;20081;-76
2021/04/04 02:59:01;;;;;;;0.50;0.50;;;;;;;11.86;54.92;99648.97;4979558;28;20035;-76
2021/04/04 03:01:29;;;;;;;0.70;0.63;;;;;;;11.77;54.94;99643.69;4979385;28;20054;-77
2021/04/04 03:03:55;;;;;;;2.83;1.02;;;;;;;11.78;54.98;99648.06;4981130;28;20069;-77
2021/04/04 03:06:23;;;;;;;2.47;0.95;;;;;;;11.77;55.53;99637.28;4975883;28;20122;-77
2021/04/04 03:08:52;;;;;;;2.13;1.75;;;;;;;11.74;55.22;99640.88;4976195;28;20393;-77
2021/04/04 03:11:18;;;;;;;1.70;1.17;;;;;;;11.69;54.83;99638.44;4976421;28;20117;-76
2021/04/04 03:13:49;;;;;;;4.32;2.00;;;;;;;11.79;54.25;99643.31;4977288;28;20172;-76
2021/04/04 03:16:17;;;;;;;2.63;1.13;;;;;;;11.76;54.06;99644.84;4977060;28;20486;-77
2021/04/04 03:18:44;;;;;;;4.88;1.10;;;;;;;11.74;53.98;99646.44;4976092;28;20045;-77
2021/04/04 03:21:11;;;;;;;1.50;1.40;;;;;;;11.79;54.05;99655.25;4976304;28;20486;-77
2021/04/04 03:23:39;;;;;;;3.55;1.30;;;;;;;11.71;53.05;99639.63;4976069;28;20474;-76
2021/04/04 03:26:05;;;;;;;2.78;1.42;;;;;;;11.79;53.35;99648.88;4979198;28;20045;-77
2021/04/04 03:28:32;;;;;;;1.98;0.98;;;;;;;11.73;53.40;99656.00;4981404;28;20050;-77
2021/04/04 03:30:58;;;;;;;2.85;1.50;;;;;;;11.76;53.97;99649.63;4976260;28;20030;-76
2021/04/04 03:33:24;;;;;;;3.53;1.50;;;;;;;11.70;53.11;99645.59;4976779;28;20490;-76
2021/04/04 03:35:52;;;;;;;1.38;1.23;;;;;;;11.68;53.45;99646.00;4976339;28;20030;-76
2021/04/04 03:38:24;;;;;;;3.80;1.30;;;;;;;11.67;52.43;99643.59;4975939;28;20053;-77
2021/04/04 03:40:52;;;;;;;4.18;1.73;;;;;;;11.69;53.11;99653.16;4976444;28;20098;-76
2021/04/04 03:43:31;;;;;;;1.75;1.65;;;;;;;11.68;52.18;99650.75;4976745;28;20434;-77
2021/04/04 03:45:59;;;;;;;2.72;1.17;;;;;;;11.70;51.96;99651.16;4976233;28;20031;-76
2021/04/04 03:48:28;;;;;;;2.80;1.40;;;;;;;11.70;51.16;99651.16;4975884;28;20027;-76
2021/04/04 03:50:55;;;;;;;2.47;1.30;;;;;;;11.72;51.86;99655.19;4976213;28;20430;-76
2021/04/04 03:53:24;;;;;;;1.63;1.00;;;;;;;11.71;51.84;99663.91;4977266;28;20034;-76
2021/04/04 03:55:54;;;;;;;1.75;1.13;;;;;;;11.67;51.50;99663.91;4978133;28;20118;-76
2021/04/04 03:58:22;;;;;;;2.38;1.13;;;;;;;11.70;50.67;99657.53;4959302;28;20397;-77
2021/04/04 04:00:50;;;;;;;3.63;1.10;;;;;;;11.64;51.48;99644.34;4975889;28;20085;-76
2021/04/04 04:03:17;;;;;;;1.35;0.93;;;;;;;11.65;51.56;99657.88;4976003;28;20031;-76
2021/04/04 04:05:45;;;;;;;1.88;0.93;;;;;;;11.47;51.26;99649.34;4976246;28;20034;-76
2021/04/04 04:08:11;;;;;;;3.20;1.13;;;;;;;11.48;51.45;99650.16;4975510;28;20181;-77
2021/04/04 04:10:40;;;;;;;3.25;1.33;;;;;;;11.50;51.24;99656.97;4976270;28;20113;-77
2021/04/04 04:13:07;;;;;;;1.42;1.33;;;;;;;11.44;50.96;99655.69;4978417;28;20129;-77
2021/04/04 04:15:34;;;;;;;3.00;1.50;;;;;;;11.54;51.14;99670.91;4980324;28;20030;-77
2021/04/04 04:18:03;;;;;;;1.77;1.10;;;;;;;11.54;50.67;99666.13;4979438;28;20118;-77
2021/04/04 04:20:29;;;;;;;1.73;0.90;;;;;;;11.50;50.87;99676.47;4975100;28;20091;-77
2021/04/04 04:23:01;;;;;;;1.08;1.00;;;;;;;11.45;50.87;99679.59;4975180;28;20038;-77
2021/04/04 04:25:27;;;;;;;1.75;1.15;;;;;;;11.41;50.59;99681.53;4975164;28;20034;-77
2021/04/04 04:27:53;;;;;;;2.25;0.73;;;;;;;11.40;50.23;99693.03;4974905;28;20106;-77
2021/04/04 04:30:20;;;;;;;1.23;1.13;;;;;;;11.31;50.88;99689.75;4974904;28;20094;-77
2021/04/04 04:32:47;;;;;;;2.15;1.60;;;;;;;11.38;51.19;99707.34;4974751;28;20031;-77
2021/04/04 04:35:13;;;;;;;4.68;2.00;;;;;;;11.34;51.35;99700.91;4974830;28;20027;-76
2021/04/04 04:37:40;;;;;;;1.63;1.52;;;;;;;11.22;51.55;99701.19;4974532;28;20053;-77
2021/04/04 04:40:10;;;;;;;2.00;1.52;;;;;;;11.13;52.13;99686.72;4975313;28;20389;-77
2021/04/04 04:42:45;;;;;;;3.90;2.92;;;;;;;11.07;51.97;99693.81;4971620;28;20030;-77
2021/04/04 04:45:18;;;;;;;4.40;3.00;;;;;;;10.93;52.05;99675.78;4974697;28;20038;-77
2021/04/04 04:47:44;;;;;;;7.68;4.85;;;;;;;10.99;52.22;99702.09;4974588;28;20549;-76
2021/04/04 04:50:10;;;;;;;4.72;3.22;;;;;;;10.97;52.34;99704.47;4974362;28;20118;-77
2021/04/04 04:52:36;;;;;;;4.97;2.17;;;;;;;10.91;52.82;99699.56;4974166;28;20125;-77
2021/04/04 04:55:02;;;;;;;4.10;2.25;;;;;;;10.97;52.47;99707.25;4975050;28;20038;-76
2021/04/04 04:57:29;;;;;;;3.90;1.83;;;;;;;11.00;52.47;99703.69;4974743;28;20053;-77
2021/04/04 04:59:59;;;;;;;2.35;2.00;;;;;;;11.06;52.42;99708.94;4974503;28;20507;-76
2021/04/04 05:02:27;;;;;;;2.08;1.73;;;;;;;11.15;51.96;99715.81;4974889;28;20429;-77
2021/04/04 05:04:53;;;;;;;1.38;1.27;;;;;;;11.16;51.69;99716.63;4974352;28;20035;-77
2021/04/04 05:07:19;;;;;;;1.23;1.13;;;;;;;11.25;51.87;99708.78;4971936;28;20164;-77
2021/04/04 05:09:46;;;;;;;1.25;1.17;;;;;;;11.54;51.05;99721.06;4974174;28;20548;-78
2021/04/04 05:12:21;;;;;;;2.47;1.23;;;;;;;11.79;50.16;99726.91;4973888;28;20038;-78
2021/04/04 05:14:48;;;;;;;2.17;1.63;;;;;;;12.07;49.12;99730.00;4973725;28;20070;-77
2021/04/04 05:17:15;;;;;;;1.73;1.50;;;;;;;12.34;47.88;99729.84;4974092;28;20026;-77
2021/04/04 05:19:44;;;;;;;1.48;1.20;;;;;;;12.68;47.39;99724.16;4974169;28;20382;-77
2021/04/04 05:22:10;;;;;;;2.05;1.30;;;;;;;12.92;46.64;99728.28;4974358;28;20038;-77
2021/04/04 05:24:37;;;;;;;4.85;1.20;;;;;;;13.07;45.11;99727.19;4974332;28;20022;-77
2021/04/04 05:27:03;;;;;;;2.45;1.40;;;;;;;13.27;44.76;99728.50;4975131;28;20026;-77
2021/04/04 05:29:29;;;;;;;2.60;1.50;;;;;;;13.51;43.79;99729.00;4973275;28;20033;-78
2021/04/04 05:31:57;;;;;;;2.03;1.48;;;;;;;13.61;43.35;99726.25;4975943;28;20035;-78
2021/04/04 05:34:28;;;;;;;1.90;1.70;;;;;;;13.17;44.26;99742.41;4978982;28;20045;-77
2021/04/04 05:37:03;;;;;;;7.63;6.50;;;;;;;13.18;44.35;99733.63;4980631;28;20517;-77
2021/04/04 05:39:30;;;;;;;17.48;14.80;;;;;;;13.04;45.03;99736.31;4977436;28;20473;-77
2021/04/04 05:42:14;;;;;;;8.13;5.82;;;;;;;13.57;43.69;99733.81;4977486;28;20034;-77
2021/04/04 05:44:42;;;;;;;;;;;;;;;13.92;42.46;99737.91;4977040;28;20030;-77
2021/04/04 05:47:17;;;;;;;10.32;6.65;;;;;;;13.80;42.28;99741.88;4977193;28;19921;-77
2021/04/04 05:50:04;;;;;;;9.32;7.65;;;;;;;14.09;42.74;99739.94;4977144;28;20032;-78
2021/04/04 05:52:46;;;;;;;4.72;4.20;;;;;;;13.93;43.05;99750.69;4977237;28;20358;-78
2021/04/04 05:55:38;;;;;;;9.82;7.80;;;;;;;13.79;43.22;99761.84;4976751;28;20031;-78
2021/04/04 05:58:11;;;;;;;4.95;3.67;;;;;;;13.81;42.93;99754.66;4976826;28;20027;-78
2021/04/04 06:00:41;;;;;;;;;;;;;;;13.91;43.04;99755.91;4994686;28;20034;-78
2021/04/04 06:03:13;;;;;;;3.13;1.40;;;;;;;13.95;42.83;99759.47;4977125;28;19972;-78
2021/04/04 06:06:00;;;;;;;2.85;1.48;;;;;;;13.78;43.36;99763.03;4976684;28;20026;-78
2021/04/04 06:09:03;;;;;;;1.38;1.00;;;;;;;13.83;43.80;99773.84;4976886;28;20030;-77
2021/04/04 06:11:51;;;;;;;6.25;1.38;;;;;;;13.83;43.95;99762.66;4976760;28;20496;-78
2021/04/04 06:14:27;;;;;;;2.55;1.80;;;;;;;14.01;43.02;99763.50;4976707;28;20038;-78
2021/04/04 06:17:09;;;;;;;3.63;1.77;;;;;;;14.27;41.79;99719.56;4976633;28;20026;-77
2021/04/04 06:19:48;;;;;;;2.22;1.77;;;;;;;15.18;40.13;99753.53;4995089;28;20118;-78
2021/04/04 06:22:38;;;;;;;3.40;1.80;;;;;;;15.68;38.77;99739.34;4994708;28;20033;-78
2021/04/04 06:25:18;;;;;;;2.47;1.52;;;;;;;15.91;38.29;99770.44;4977100;28;20461;-78
2021/04/04 06:27:51;;;;;;;2.17;1.55;;;;;;;16.03;37.83;99772.00;4977733;28;20097;-78
2021/04/04 06:33:48;;;;;;;2.63;1.77;;;;;;;16.40;35.64;99778.97;4897976;29;20068;-79
2021/04/04 06:36:29;;;;;;;3.08;0.95;;;;;;;16.73;35.20;99780.38;4884881;29;20036;-79
2021/04/04 06:39:49;;;;;;;3.90;0.98;;;;;;;16.32;35.81;99777.44;4968407;28;20133;-79
2021/04/04 06:42:24;;;;;;;3.75;1.50;;;;;;;15.87;36.08;99782.91;4952090;28;20050;-77
2021/04/04 06:45:01;;;;;;;3.92;2.00;;;;;;;16.18;36.52;99781.13;4980895;28;20044;-77
2021/04/04 06:48:01;;;;;;;3.30;0.82;;;;;;;15.46;36.41;99783.47;4980630;28;20027;-76
2021/04/04 06:50:46;;;;;;;1.48;1.02;;;;;;;14.21;38.84;99760.34;4950529;28;20497;-76
2021/04/04 06:53:50;;;;;;;4.50;2.47;;;;;;;14.12;39.76;99785.91;4997928;28;20022;-77
2021/04/04 06:56:32;;;;;;;3.45;1.75;;;;;;;13.90;39.91;99785.03;4968540;28;20045;-78
2021/04/04 06:59:07;;;;;;;7.55;5.53;;;;;;;13.82;40.21;99789.00;4997587;28;20034;-78
2021/04/04 07:01:54;;;;;;;5.75;3.63;;;;;;;14.14;39.88;99789.09;4981530;28;20129;-79
2021/04/04 07:04:50;;;;;;;14.50;9.80;;;;;;;14.18;39.66;99786.31;5002296;28;20033;-80
2021/04/04 07:07:34;;;;;;;4.85;3.05;;;;;;;14.04;39.96;99784.28;4980819;28;20113;-82
2021/04/04 07:10:18;;;;;;;7.28;4.82;;;;;;;14.00;39.88;99787.06;4982788;28;20474;-78
2021/04/04 07:13:02;;;;;;;;;;;;;;;14.09;39.84;99793.09;4980155;28;20036;-79
2021/04/04 07:15:37;;;;;;;14.65;5.63;;;;;;;14.11;39.97;99799.09;4979720;28;19910;-78
2021/04/04 07:18:39;;;;;;;10.00;6.65;;;;;;;14.28;40.18;99800.34;4980091;28;20485;-79
2021/04/04 07:21:46;;;;;;;24.15;16.27;;;;;;;14.34;40.88;99797.94;4975745;28;20104;-78
2021/04/04 07:24:30;;;;;;;4.90;2.35;;;;;;;13.82;41.26;99794.59;4947449;28;20042;-79
2021/04/04 07:27:21;;;;;;;5.47;2.15;;;;;;;13.78;42.02;99822.53;4979404;28;20084;-79
2021/04/04 07:30:30;;;;;;;3.08;1.45;;;;;;;13.74;41.90;99818.13;4979432;28;20027;-79
2021/04/04 07:33:16;;;;;;;5.38;1.83;;;;;;;13.89;41.30;99842.97;4996588;28;20042;-79
2021/04/04 07:36:15;;;;;;;4.65;1.73;;;;;;;14.00;41.36;99828.22;4979404;28;20026;-79
2021/04/04 07:38:49;;;;;;;1.48;1.17;;;;;;;13.92;41.30;99830.19;4971771;28;20050;-78
2021/04/04 07:41:27;;;;;;;1.40;1.30;;;;;;;14.02;40.88;99837.03;4976240;28;20050;-79
2021/04/04 07:44:16;;;;;;;3.65;1.35;;;;;;;14.06;40.69;99812.66;4978560;28;20035;-83
2021/04/04 07:47:07;;;;;;;3.00;1.23;;;;;;;14.09;40.20;99832.25;4987758;28;20382;-78
2021/04/04 07:49:53;;;;;;;3.38;1.40;;;;;;;13.68;39.71;99755.41;4982607;28;20066;-83
2021/04/04 07:52:40;;;;;;;2.28;1.33;;;;;;;14.31;39.94;99837.91;4983569;28;20031;-80
2021/04/04 07:55:22;;;;;;;3.92;1.30;;;;;;;13.98;39.80;99841.81;4988015;28;20421;-81
2021/04/04 07:58:12;;;;;;;2.50;1.30;;;;;;;14.12;40.11;99841.88;4987035;28;20058;-80
2021/04/04 08:00:55;;;;;;;1.85;1.13;;;;;;;13.87;40.10;99850.97;4987760;28;20026;-81
2021/04/04 08:03:37;;;;;;;2.85;1.25;;;;;;;14.03;39.94;99856.22;4980336;28;20038;-78
2021/04/04 08:06:12;;;;;;;6.22;1.88;;;;;;;14.72;38.64;99851.59;4977332;28;20023;-77
2021/04/04 08:08:51;;;;;;;4.15;1.30;;;;;;;15.10;38.22;99853.59;4975469;28;20023;-77
2021/04/04 08:11:26;;;;;;;5.22;1.30;;;;;;;14.97;36.66;99852.41;4975571;28;20507;-75
2021/04/04 08:14:05;;;;;;;2.72;1.65;;;;;;;15.30;35.38;99834.34;4975736;28;20082;-76
2021/04/04 08:16:33;;;;;;;3.97;1.55;;;;;;;15.00;35.87;99864.81;4975958;28;20038;-77
2021/04/04 08:19:01;;;;;;;0.93;0.90;;;;;;;15.02;35.12;99837.19;4975470;28;20041;-77
2021/04/04 08:21:35;;;;;;;2.42;1.20;;;;;;;15.39;34.30;99829.13;4976323;28;20110;-77
2021/04/04 08:24:12;;;;;;;3.17;1.10;;;;;;;15.52;33.91;99859.53;4975353;28;20126;-77
2021/04/04 08:26:50;;;;;;;2.38;1.73;;;;;;;14.74;34.42;99849.97;4975639;28;20494;-76
2021/04/04 08:29:25;;;;;;;5.05;1.80;;;;;;;14.70;34.19;99859.59;4975988;28;20030;-76
2021/04/04 08:32:10;;;;;;;5.07;1.00;;;;;;;15.01;33.99;99852.38;4975633;28;20049;-75
2021/04/04 08:34:45;;;;;;;5.78;3.13;;;;;;;14.88;33.30;99860.41;4975192;28;20430;-74
2021/04/04 08:37:24;;;;;;;4.38;1.20;;;;;;;14.03;33.56;99819.84;4974845;28;20074;-75
2021/04/04 08:40:00;;;;;;;3.28;2.97;;;;;;;14.75;33.83;99862.00;4976524;28;20027;-74
2021/04/04 08:42:29;;;;;;;3.13;2.83;;;;;;;15.11;33.00;99854.38;4975871;28;20031;-75
2021/04/04 08:45:04;;;;;;;8.20;4.90;;;;;;;15.42;32.05;99866.75;4975302;28;20030;-74
2021/04/04 08:47:32;;;;;;;1.95;1.75;;;;;;;15.40;31.04;99869.19;4975686;28;20031;-74
2021/04/04 08:50:00;;;;;;;8.73;3.13;;;;;;;15.05;32.29;99870.81;4978654;28;20378;-76
2021/04/04 08:52:40;;;;;;;4.13;2.92;;;;;;;15.65;31.79;99872.75;4975974;28;20186;-75
2021/04/04 08:55:07;;;;;;;9.68;5.45;;;;;;;15.74;30.86;99871.53;4974350;28;20085;-74
2021/04/04 08:57:44;;;;;;;67.13;28.85;;;;;;;15.53;31.28;99873.16;4974745;28;20180;-73
2021/04/04 09:00:12;;;;;;;153.52;69.22;;;;;;;15.30;31.71;99865.19;4990768;28;20109;-74
2021/04/04 09:03:12;;;;;;;73.15;40.25;;;;;;;15.50;30.91;99878.75;4991086;28;20477;-76
2021/04/04 09:05:38;;;;;;;16.30;9.82;;;;;;;15.09;31.88;99887.63;4962114;28;20390;-74
2021/04/04 09:08:05;;;;;;;43.90;30.35;;;;;;;15.34;31.09;99881.97;4974637;28;20029;-76
2021/04/04 09:10:39;;;;;;;22.70;13.63;;;;;;;15.40;31.55;99891.59;4975939;28;20474;-75
2021/04/04 09:13:08;;;;;;;;;;;;;;;15.57;31.12;99890.78;4990849;28;20067;-74
2021/04/04 09:15:53;;;;;;;3.35;1.75;;;;;;;15.08;32.17;99886.81;4974331;28;20004;-74
2021/04/04 09:18:20;;;;;;;7.30;3.00;;;;;;;15.27;31.75;99887.59;4974785;28;20030;-73
2021/04/04 09:20:47;;;;;;;4.18;2.65;;;;;;;15.25;30.42;99899.22;4974161;28;20027;-73
2021/04/04 09:23:15;;;;;;;1.63;1.27;;;;;;;14.71;30.91;99895.59;4975661;28;20528;-73
2021/04/04 09:25:57;;;;;;;3.08;2.00;;;;;;;14.74;30.80;99899.59;4958803;28;20034;-75
2021/04/04 09:28:29;;;;;;;2.35;1.73;;;;;;;14.80;30.66;99893.19;4973759;28;20097;-74
2021/04/04 09:30:58;;;;;;;5.57;1.50;;;;;;;14.97;30.92;99902.00;4974050;28;20113;-75
2021/04/04 09:33:29;;;;;;;5.35;1.38;;;;;;;15.09;30.29;99893.22;4974554;28;20093;-73
2021/04/04 09:35:58;;;;;;;5.07;1.83;;;;;;;15.22;30.56;99891.59;4958311;28;20050;-73
2021/04/04 09:38:36;;;;;;;2.75;1.20;;;;;;;15.33;30.18;99912.03;4973751;28;20051;-74
2021/04/04 09:41:02;;;;;;;4.43;1.80;;;;;;;15.52;29.60;99901.59;4974110;28;20030;-74
2021/04/04 09:43:28;;;;;;;3.15;1.50;;;;;;;15.96;28.46;99906.72;4975477;28;20436;-71
2021/04/04 09:46:05;;;;;;;1.23;1.13;;;;;;;15.89;28.53;99901.13;4976085;28;20154;-71
2021/04/04 09:48:36;;;;;;;1.58;1.25;;;;;;;15.47;28.83;99902.81;4974465;28;20103;-73
2021/04/04 09:51:12;;;;;;;4.68;1.27;;;;;;;15.15;29.25;99897.22;4973868;28;20504;-69
2021/04/04 09:53:40;;;;;;;6.40;1.52;;;;;;;14.78;29.03;99890.00;4973693;28;20026;-71
2021/04/04 09:56:14;;;;;;;2.38;1.75;;;;;;;14.44;29.35;99909.13;4975269;28;20053;-68
2021/04/04 09:58:45;;;;;;;2.17;1.40;;;;;;;14.42;30.02;99917.09;4972795;28;20466;-70
2021/04/04 10:01:22;;;;;;;2.50;1.60;;;;;;;14.36;30.34;99897.09;4974885;28;20437;-71
2021/04/04 10:04:04;;;;;;;2.28;2.05;;;;;;;14.19;30.99;99913.81;4973642;28;20058;-71
2021/04/04 10:06:31;;;;;;;2.05;1.50;;;;;;;14.12;31.20;99904.22;4973324;28;20097;-71
2021/04/04 10:09:02;;;;;;;3.17;2.28;;;;;;;13.98;32.18;99912.53;4973471;28;20023;-70
2021/04/04 10:11:29;;;;;;;5.78;1.60;;;;;;;13.99;31.50;99916.94;4974154;28;20023;-70
2021/04/04 10:14:11;;;;;;;4.63;2.10;;;;;;;14.05;30.96;99908.97;4973168;28;20138;-72
2021/04/04 10:16:37;;;;;;;4.68;2.20;;;;;;;13.99;30.91;99908.53;4978216;28;20030;-70
2021/04/04 10:19:15;;;;;;;3.25;2.45;;;;;;;14.21;30.47;99906.63;4977998;28;20035;-71
2021/04/04 10:22:02;;;;;;;6.32;2.90;;;;;;;13.88;30.58;99877.72;4978739;28;20478;-70
2021/04/04 10:24:33;;;;;;;4.13;3.38;;;;;;;14.12;30.22;99879.03;4978365;28;20023;-70
2021/04/04 10:27:26;;;;;;;3.53;2.20;;;;;;;14.16;31.01;99909.81;4978798;28;20034;-71
2021/04/04 10:30:03;;;;;;;7.75;3.72;;;;;;;14.10;30.83;99914.19;4976780;28;20031;-72
2021/04/04 10:32:29;;;;;;;7.43;2.88;;;;;;;14.14;30.71;99901.81;4976855;28;20031;-68
2021/04/04 10:34:54;;;;;;;3.13;2.15;;;;;;;14.42;31.04;99905.91;4978912;28;20145;-76
2021/04/04 10:37:29;;;;;;;3.72;2.15;;;;;;;14.05;30.61;99864.19;4978316;28;20397;-79
2021/04/04 10:39:57;;;;;;;5.38;2.38;;;;;;;14.25;30.24;99917.84;4978707;28;20031;-77
2021/04/04 10:42:24;;;;;;;8.50;1.58;;;;;;;14.22;30.80;99897.06;4980353;28;20030;-81
2021/04/04 10:44:49;;;;;;;3.25;2.70;;;;;;;14.62;30.31;99893.19;4963362;28;20101;-80
2021/04/04 10:47:23;;;;;;;2.38;2.08;;;;;;;14.51;29.51;99900.75;4979129;28;20381;-78
2021/04/04 10:49:49;;;;;;;4.72;3.33;;;;;;;14.61;29.67;99891.59;4982990;28;20039;-78
2021/04/04 10:52:20;;;;;;;3.92;1.75;;;;;;;14.50;30.31;99889.97;4982506;28;20062;-78
2021/04/04 10:54:47;;;;;;;4.90;1.73;;;;;;;14.40;30.60;99892.31;4980976;28;20031;-81
2021/04/04 10:57:12;;;;;;;7.43;2.30;;;;;;;14.70;29.87;99894.00;4978805;28;20037;-78
2021/04/04 10:59:39;;;;;;;5.35;3.35;;;;;;;14.84;30.13;99893.22;4982763;28;20125;-79
2021/04/04 11:02:05;;;;;;;6.20;3.38;;;;;;;14.98;29.87;99876.41;4980446;28;20053;-82
2021/04/04 11:04:32;;;;;;;3.03;2.60;;;;;;;15.03;29.75;99892.84;4979983;28;20035;-80
2021/04/04 11:07:03;;;;;;;5.63;2.38;;;;;;;15.05;29.86;99859.59;4985931;28;20035;-81
2021/04/04 11:09:31;;;;;;;4.13;1.92;;;;;;;15.24;29.92;99885.63;4985448;28;20050;-79
2021/04/04 11:12:00;;;;;;;3.22;2.22;;;;;;;15.21;30.42;99890.00;4979164;28;20057;-77
2021/04/04 11:14:30;;;;;;;1.85;1.20;;;;;;;15.48;30.05;99890.38;4962034;28;20042;-80
2021/04/04 11:17:02;;;;;;;7.20;2.05;;;;;;;15.38;30.86;99866.75;4961119;28;20044;-79
2021/04/04 11:19:29;;;;;;;3.22;1.42;;;;;;;15.52;31.45;99882.78;4976360;28;20031;-79
2021/04/04 11:21:59;;;;;;;2.92;2.30;;;;;;;15.36;32.36;99879.59;4976426;28;20043;-79
2021/04/04 11:24:25;;;;;;;4.65;3.42;;;;;;;15.55;32.48;99887.56;4978947;28;20027;-78
2021/04/04 11:27:02;;;;;;;2.03;1.73;;;;;;;15.70;32.62;99882.75;4975048;28;20035;-78
2021/04/04 11:29:29;;;;;;;3.15;2.17;;;;;;;15.95;32.24;99868.66;4976180;28;20026;-78
2021/04/04 11:31:57;;;;;;;5.35;1.55;;;;;;;16.28;32.37;99872.09;4976573;28;20042;-78
2021/04/04 11:34:40;;;;;;;4.55;1.42;;;;;;;16.09;32.29;99874.22;4975440;28;20023;-78
2021/04/04 11:37:30;;;;;;;3.87;3.30;;;;;;;15.76;32.43;99863.50;4959941;28;20058;-78
2021/04/04 11:40:19;;;;;;;3.30;2.30;;;;;;;16.13;31.88;99872.16;4975612;28;20097;-78
2021/04/04 11:42:48;;;;;;;4.68;1.85;;;;;;;16.13;32.13;99874.97;4975346;28;20035;-78
2021/04/04 11:45:32;;;;;;;1.30;1.20;;;;;;;16.30;31.04;99870.50;4975465;28;20490;-78
2021/04/04 11:48:26;;;;;;;6.85;3.30;;;;;;;16.60;30.82;99855.84;4975107;28;20034;-79
2021/04/04 11:50:55;;;;;;;2.55;1.55;;;;;;;16.10;30.92;99856.16;4975618;28;20474;-78
2021/04/04 11:53:48;;;;;;;2.28;1.60;;;;;;;16.29;30.77;99856.84;4975848;28;20398;-78
2021/04/04 11:56:48;;;;;;;3.75;1.67;;;;;;;16.23;31.16;99857.28;4975487;28;20039;-78
2021/04/04 11:59:14;;;;;;;2.65;1.63;;;;;;;16.82;30.66;99848.09;4975212;28;20473;-78
2021/04/04 12:01:40;;;;;;;2.25;1.80;;;;;;;16.99;30.11;99852.78;4975430;28;20503;-78
2021/04/04 12:04:43;;;;;;;3.40;1.95;;;;;;;16.58;29.82;99858.28;4975429;28;20118;-78
2021/04/04 12:07:10;;;;;;;2.10;1.13;;;;;;;15.86;30.12;99852.22;4976103;28;20073;-78